Terminal Aerodrome Forecast
Issued by NWS Tampa Bay Area, FL

Home | Current Version | Previous Version | Text Only | Print | Product List | Glossary On
Versions: 1 2 3 4 5 6 7 8 9
435
FTUS42 KTBW 252322
TAFSRQ
TAF
KSRQ 252322Z 2600/2624 27008KT P6SM FEW050
     FM260200 VRB03KT P6SM FEW250
     FM261400 17007KT P6SM FEW030 FEW250
     FM261800 22011KT P6SM FEW035 FEW250=

USA.gov is the U.S. government's official web portal to all federal, state and local government web resources and services.